Time;durP1;ratioP1;P1;durP2;ratioP2;P2;SDS_P1;SDS_P2;PMS_P1;PMS_P2;Temp;Humidity;BMP_temperature;BMP_pressure;BME280_temperature;BME280_humidity;BME280_pressure;Samples;Min_cycle;Max_cycle;Signal;HPM_P1;HPM_P2
2022/06/06 00:02:19;;;;;;;8.03;6.43;;;11.50;99.90;10.70;100695;;;;585148;242;24115;-88
2022/06/06 00:04:47;;;;;;;8.03;6.87;;;11.50;99.90;10.70;100695;;;;585271;242;24097;-86
2022/06/06 00:07:15;;;;;;;7.20;5.50;;;11.50;99.90;10.70;100690;;;;583587;242;24055;-85
2022/06/06 00:09:46;;;;;;;7.00;6.23;;;11.50;99.90;10.80;100688;;;;583075;242;24134;-86
2022/06/06 00:12:14;;;;;;;10.90;6.80;;;11.50;99.90;10.80;100684;;;;582314;242;24116;-87
2022/06/06 00:14:39;;;;;;;10.63;7.03;;;11.50;99.90;10.70;100689;;;;585290;242;24061;-88
2022/06/06 00:17:07;;;;;;;7.50;6.67;;;11.50;99.90;10.70;100685;;;;585088;242;24107;-86
2022/06/06 00:19:39;;;;;;;12.33;8.07;;;11.40;99.90;10.60;100677;;;;582724;242;25186;-84
2022/06/06 00:22:05;;;;;;;7.33;6.60;;;11.40;99.90;10.60;100681;;;;584377;242;24096;-81
2022/06/06 00:24:34;;;;;;;13.80;7.03;;;11.30;99.90;10.60;100672;;;;583743;242;24076;-81
2022/06/06 00:27:04;;;;;;;11.20;9.87;;;11.30;99.90;10.60;100671;;;;576874;242;35296;-81
2022/06/06 00:29:34;;;;;;;11.97;8.37;;;11.30;99.90;10.60;100661;;;;583376;242;24092;-81
2022/06/06 00:34:52;;;;;;;9.33;6.87;;;11.30;99.90;10.60;100660;;;;584023;242;24052;-81
2022/06/06 00:37:25;;;;;;;10.43;7.50;;;11.30;99.90;10.50;100658;;;;581840;242;24092;-81
2022/06/06 00:39:57;;;;;;;10.47;7.17;;;11.30;99.90;10.50;100655;;;;585007;241;24107;-81
2022/06/06 00:42:25;;;;;;;10.80;7.10;;;11.20;99.90;10.50;100652;;;;585054;242;25164;-81
2022/06/06 00:45:21;;;;;;;7.80;6.10;;;11.20;99.90;10.50;100650;;;;584645;242;24072;-81
2022/06/06 00:48:29;;;;;;;12.23;6.43;;;11.20;99.90;10.50;100650;;;;584723;242;24099;-82
2022/06/06 00:51:12;;;;;;;10.43;6.93;;;11.20;99.90;10.40;100641;;;;584390;242;24132;-80
2022/06/06 00:53:55;;;;;;;9.40;6.20;;;11.20;99.90;10.40;100644;;;;561873;251;24146;-81
2022/06/06 00:56:20;;;;;;;5.93;5.33;;;11.20;99.90;10.50;100650;;;;579844;244;24068;-81
2022/06/06 00:58:48;;;;;;;9.70;5.83;;;11.20;99.90;10.40;100642;;;;579422;244;24114;-81
2022/06/06 01:01:16;;;;;;;7.10;5.93;;;11.20;99.90;10.50;100638;;;;593826;241;24052;-82
2022/06/06 01:03:46;;;;;;;11.03;5.50;;;11.20;99.90;10.40;100637;;;;593913;242;24060;-81
2022/06/06 01:06:12;;;;;;;7.57;5.70;;;11.20;99.90;10.40;100636;;;;584394;241;24064;-81
2022/06/06 01:08:40;;;;;;;10.90;5.97;;;11.20;99.90;10.40;100636;;;;584647;242;24104;-82
2022/06/06 01:11:11;;;;;;;7.40;5.93;;;11.20;99.90;10.40;100638;;;;584724;241;24105;-80
2022/06/06 01:13:36;;;;;;;9.67;6.67;;;11.20;99.90;10.40;100623;;;;593810;242;24061;-81
2022/06/06 01:16:35;;;;;;;8.63;6.57;;;11.20;99.90;10.40;100612;;;;584287;242;24125;-82
2022/06/06 01:19:21;;;;;;;9.37;8.20;;;11.10;99.90;10.40;100606;;;;578976;242;35292;-79
2022/06/06 01:22:14;;;;;;;9.73;6.20;;;11.10;99.90;10.40;100589;;;;584478;242;25511;-82
2022/06/06 01:25:06;;;;;;;8.80;5.47;;;11.10;99.90;10.50;100589;;;;583572;242;24066;-82
2022/06/06 01:27:52;;;;;;;6.93;5.10;;;11.20;99.90;10.50;100583;;;;583952;242;24094;-80
2022/06/06 01:30:20;;;;;;;6.43;5.60;;;11.20;99.90;10.50;100577;;;;583848;242;24069;-81
2022/06/06 01:32:48;;;;;;;8.40;5.27;;;11.30;99.90;10.60;100566;;;;583689;242;24068;-80
2022/06/06 01:35:26;;;;;;;9.63;5.37;;;11.30;99.90;10.60;100567;;;;567016;249;24183;-81
2022/06/06 01:37:54;;;;;;;6.90;5.30;;;11.30;99.90;10.50;100570;;;;581037;243;24167;-82
2022/06/06 01:40:25;;;;;;;5.13;4.27;;;11.30;99.90;10.60;100579;;;;584226;242;24065;-85
2022/06/06 01:43:14;;;;;;;7.50;4.70;;;11.30;99.90;10.50;100576;;;;583819;241;24109;-81
2022/06/06 01:45:53;;;;;;;8.87;4.63;;;11.30;99.90;10.50;100577;;;;583957;242;24063;-82
2022/06/06 01:48:27;;;;;;;8.73;4.93;;;11.20;99.90;10.50;100581;;;;561506;252;24119;-81
2022/06/06 01:50:56;;;;;;;7.10;6.03;;;11.20;99.90;10.50;100572;;;;584938;240;24104;-82
2022/06/06 01:53:24;;;;;;;6.93;5.70;;;11.30;99.90;10.50;100575;;;;585354;242;24109;-82
2022/06/06 01:55:55;;;;;;;8.60;5.17;;;11.20;99.90;10.50;100573;;;;585270;242;24118;-82
2022/06/06 01:58:22;;;;;;;7.03;5.57;;;11.20;99.90;10.60;100578;;;;584589;241;24099;-82
2022/06/06 02:00:51;;;;;;;7.83;4.67;;;11.30;99.90;10.60;100576;;;;584918;242;24103;-81
2022/06/06 02:03:18;;;;;;;5.43;4.90;;;11.30;99.90;10.60;100578;;;;582367;242;24103;-83
2022/06/06 02:05:46;;;;;;;5.77;5.10;;;11.30;99.90;10.60;100579;;;;582764;242;24065;-82
2022/06/06 02:08:17;;;;;;;5.70;5.10;;;11.40;99.90;10.60;100578;;;;561707;252;24188;-82
2022/06/06 02:10:43;;;;;;;5.80;4.87;;;11.40;99.90;10.60;100573;;;;579066;244;24079;-81
2022/06/06 02:13:11;;;;;;;6.80;5.50;;;11.40;99.90;10.60;100572;;;;583080;242;24075;-82
2022/06/06 02:15:39;;;;;;;7.90;5.87;;;11.40;99.90;10.60;100571;;;;584430;242;24134;-80
2022/06/06 02:18:09;;;;;;;9.00;7.20;;;11.30;99.90;10.60;100568;;;;579230;242;35306;-81
2022/06/06 02:20:35;;;;;;;9.77;5.30;;;11.40;99.90;10.70;100558;;;;584037;242;24127;-82
2022/06/06 02:23:06;;;;;;;7.70;5.70;;;11.40;99.90;10.70;100560;;;;584217;242;24165;-82
2022/06/06 02:25:31;;;;;;;4.67;4.23;;;11.60;99.90;10.80;100561;;;;593281;242;24113;-81
2022/06/06 02:28:04;;;;;;;6.53;5.03;;;11.60;99.90;10.90;100554;;;;584434;242;24098;-80
2022/06/06 02:30:29;;;;;;;4.90;4.20;;;11.70;99.90;11.00;100553;;;;584187;242;24111;-81
2022/06/06 02:32:56;;;;;;;5.73;4.70;;;11.70;99.90;11.00;100556;;;;584403;242;24094;-81
2022/06/06 02:35:24;;;;;;;7.03;4.23;;;11.80;99.90;11.10;100556;;;;584458;242;24079;-82
2022/06/06 02:37:52;;;;;;;6.33;4.70;;;11.80;99.90;11.10;100552;;;;584207;242;24078;-81
2022/06/06 02:40:24;;;;;;;7.20;5.60;;;11.80;99.90;11.10;100557;;;;584391;242;24131;-81
2022/06/06 02:42:48;;;;;;;6.90;4.70;;;11.90;99.90;11.20;100567;;;;581542;242;24091;-82
2022/06/06 02:45:16;;;;;;;6.23;5.03;;;11.90;99.90;11.20;100556;;;;582380;242;24104;-81
2022/06/06 02:47:47;;;;;;;6.57;4.50;;;11.90;99.90;11.30;100561;;;;582416;242;24088;-82
2022/06/06 02:50:13;;;;;;;8.07;5.70;;;12.00;99.90;11.30;100546;;;;593375;238;24147;-81
2022/06/06 02:52:44;;;;;;;8.10;5.30;;;12.00;99.90;11.40;100555;;;;584545;242;24128;-82
2022/06/06 02:55:10;;;;;;;5.77;5.13;;;12.20;99.90;11.40;100554;;;;583970;242;24114;-81
2022/06/06 02:57:38;;;;;;;7.50;5.57;;;12.20;99.90;11.50;100548;;;;583969;242;24084;-82
2022/06/06 03:00:07;;;;;;;6.67;5.73;;;12.20;99.90;11.60;100552;;;;561282;252;24137;-80
2022/06/06 03:02:35;;;;;;;7.70;6.40;;;12.30;99.90;11.70;100554;;;;584752;240;24085;-81
2022/06/06 03:05:05;;;;;;;6.27;5.50;;;12.50;99.90;11.90;100550;;;;594944;241;24083;-81
2022/06/06 03:07:57;;;;;;;7.73;5.60;;;12.70;99.90;12.10;100553;;;;585139;242;24063;-81
2022/06/06 03:10:53;;;;;;;9.70;5.67;;;12.70;99.90;12.30;100559;;;;585394;242;24063;-80
2022/06/06 03:14:18;;;;;;;7.13;5.30;;;12.90;99.90;12.50;100552;;;;566901;252;24123;-81
2022/06/06 03:23:09;;;;;;;5.70;5.20;;;14.20;99.90;14.10;100561;;;;576673;244;24134;-83
2022/06/06 03:25:52;;;;;;;8.67;4.80;;;14.70;99.90;14.60;100557;;;;584927;242;24123;-80
2022/06/06 03:28:56;;;;;;;6.70;4.27;;;15.30;99.90;15.20;100549;;;;579241;241;24088;-80
2022/06/06 03:32:08;;;;;;;5.60;4.53;;;15.90;99.90;16.00;100547;;;;585131;242;24103;-82
2022/06/06 03:34:44;;;;;;;4.47;4.07;;;16.60;99.90;16.40;100545;;;;561699;252;24139;-83
2022/06/06 03:37:17;;;;;;;4.67;3.87;;;17.10;99.90;16.80;100549;;;;577603;244;24163;-82
2022/06/06 03:40:23;;;;;;;6.27;4.10;;;17.90;99.90;17.20;100552;;;;584247;242;24107;-84
2022/06/06 03:43:08;;;;;;;4.40;3.33;;;17.90;99.90;17.70;100544;;;;592093;240;24201;-82
2022/06/06 03:45:39;;;;;;;4.30;3.90;;;18.40;99.90;18.10;100539;;;;584745;242;24073;-80
2022/06/06 03:48:37;;;;;;;4.23;3.83;;;18.80;99.90;18.40;100531;;;;585081;242;24057;-82
2022/06/06 03:51:32;;;;;;;3.20;3.00;;;19.10;99.90;18.60;100531;;;;591717;239;24071;-82
2022/06/06 03:54:15;;;;;;;4.17;3.67;;;19.40;99.90;19.10;100533;;;;584948;242;24130;-83
2022/06/06 03:57:01;;;;;;;3.97;3.20;;;19.80;99.90;19.40;100538;;;;584037;242;24090;-84
2022/06/06 03:59:29;;;;;;;3.47;3.27;;;20.10;99.90;19.90;100538;;;;584581;242;24129;-83
2022/06/06 04:01:59;;;;;;;4.20;3.90;;;20.60;99.90;20.60;100541;;;;584544;242;23095;-83
2022/06/06 04:04:27;;;;;;;4.00;3.60;;;21.30;99.90;21.40;100542;;;;584618;242;24052;-84
2022/06/06 04:06:57;;;;;;;4.33;3.40;;;22.80;99.90;22.30;100542;;;;561866;252;24131;-83
2022/06/06 04:09:34;;;;;;;3.77;3.20;;;23.50;99.90;22.80;100540;;;;584308;241;24066;-82
2022/06/06 04:12:16;;;;;;;4.63;3.50;;;23.50;99.90;23.40;100541;;;;561616;251;23132;-83
2022/06/06 04:15:23;;;;;;;3.53;3.10;;;24.10;99.90;23.80;100550;;;;584473;241;24181;-84
2022/06/06 04:18:23;;;;;;;3.77;3.40;;;24.70;99.90;24.40;100549;;;;586203;242;24061;-83
2022/06/06 04:21:17;;;;;;;3.63;3.43;;;26.10;96.60;25.20;100550;;;;584931;242;24050;-82
2022/06/06 04:23:48;;;;;;;4.10;3.80;;;26.00;96.60;26.00;100548;;;;585344;241;23091;-84
2022/06/06 04:26:24;;;;;;;3.97;3.60;;;26.80;92.60;26.40;100540;;;;584548;242;23089;-82
2022/06/06 04:29:03;;;;;;;5.20;3.67;;;27.40;88.60;26.60;100544;;;;585246;242;23061;-83
2022/06/06 04:31:48;;;;;;;5.97;3.73;;;27.70;83.90;27.20;100545;;;;585152;242;24123;-81
2022/06/06 04:34:49;;;;;;;3.93;3.53;;;28.10;78.50;27.40;100546;;;;584318;242;24084;-84
2022/06/06 04:37:37;;;;;;;4.80;3.37;;;28.40;77.50;27.80;100540;;;;584590;242;24081;-84
2022/06/06 04:40:35;;;;;;;4.00;3.60;;;28.70;72.60;28.00;100541;;;;584868;242;23090;-84
2022/06/06 04:43:00;;;;;;;5.67;5.10;;;29.00;71.90;28.40;100533;;;;584847;242;23125;-84
2022/06/06 04:45:43;;;;;;;5.63;4.50;;;29.40;69.70;28.60;100545;;;;584343;242;23087;-83
2022/06/06 04:48:11;;;;;;;6.15;4.20;;;29.70;67.40;28.80;100543;;;;585337;242;23066;-83
2022/06/06 04:50:39;;;;;;;4.05;3.58;;;29.90;67.00;29.50;100545;;;;584392;242;23099;-82
2022/06/06 04:53:10;;;;;;;4.05;3.70;;;30.40;65.20;29.90;100543;;;;561750;252;23151;-85
2022/06/06 04:55:40;;;;;;;3.87;3.45;;;31.40;61.20;30.50;100555;;;;584006;242;23055;-86
2022/06/06 04:58:06;;;;;;;3.92;3.60;;;31.40;61.10;31.00;100551;;;;584482;242;25204;-83
2022/06/06 05:00:37;;;;;;;4.47;4.07;;;32.00;58.90;31.40;100549;;;;584287;242;23139;-81
2022/06/06 05:03:05;;;;;;;3.87;3.58;;;32.40;58.10;31.80;100560;;;;583732;242;23114;-84
2022/06/06 05:05:38;;;;;;;3.75;3.53;;;32.80;56.30;31.70;100555;;;;584480;242;23134;-84
2022/06/06 05:08:15;;;;;;;4.30;3.90;;;32.90;55.60;32.00;100562;;;;551086;252;24174;-85
2022/06/06 05:11:20;;;;;;;4.57;4.10;;;33.10;54.70;32.10;100567;;;;572088;241;35159;-86
2022/06/06 05:13:46;;;;;;;4.60;3.87;;;33.20;54.20;32.10;100566;;;;584265;242;23163;-85
2022/06/06 05:16:23;;;;;;;9.45;3.95;;;33.20;54.10;32.60;100562;;;;583097;242;24136;-83
2022/06/06 05:19:12;;;;;;;8.45;4.00;;;33.50;52.70;32.80;100567;;;;583931;241;23079;-85
2022/06/06 05:22:04;;;;;;;10.18;3.83;;;33.70;52.20;33.30;100574;;;;573104;242;23135;-83
2022/06/06 05:24:32;;;;;;;3.92;3.47;;;34.20;50.80;33.70;100573;;;;584287;242;24120;-84
2022/06/06 05:27:30;;;;;;;7.70;4.00;;;34.60;49.80;34.10;100570;;;;585399;241;23084;-85
2022/06/06 05:30:06;;;;;;;3.53;3.22;;;35.00;48.60;34.60;100581;;;;585641;242;23070;-86
2022/06/06 05:32:40;;;;;;;3.72;3.40;;;35.50;47.70;35.00;100582;;;;586499;242;23116;-87
2022/06/06 05:36:00;;;;;;;8.00;4.07;;;35.90;46.90;34.50;100592;;;;579362;241;23093;-87
2022/06/06 05:39:15;;;;;;;6.72;4.00;;;35.70;45.90;34.70;100591;;;;585711;242;24089;-85
2022/06/06 05:41:46;;;;;;;7.97;3.58;;;35.70;45.90;35.40;100591;;;;585617;242;23078;-86
2022/06/06 05:44:41;;;;;;;20.25;5.05;;;36.20;46.00;36.20;100593;;;;584676;242;23113;-87
2022/06/06 05:47:22;;;;;;;12.05;4.35;;;36.90;45.80;37.30;100597;;;;585657;242;23122;-87
2022/06/06 05:49:53;;;;;;;8.00;3.95;;;38.90;43.70;38.20;100591;;;;594979;238;23104;-85
2022/06/06 05:52:21;;;;;;;18.42;5.30;;;38.80;43.60;38.70;100587;;;;585331;242;23220;-86
2022/06/06 05:54:58;;;;;;;14.02;3.95;;;39.40;42.80;39.30;100592;;;;585659;242;24072;-86
2022/06/06 05:57:51;;;;;;;9.48;4.40;;;39.90;42.20;39.40;100591;;;;584185;242;23121;-85
2022/06/06 06:00:55;;;;;;;17.52;4.70;;;40.20;41.10;38.90;100593;;;;594486;242;23108;-86
2022/06/06 06:03:26;;;;;;;6.20;3.90;;;39.90;41.60;38.60;100589;;;;583989;241;23108;-85
2022/06/06 06:06:13;;;;;;;13.65;4.30;;;38.90;41.50;37.80;100589;;;;583540;242;23079;-84
2022/06/06 06:09:05;;;;;;;8.68;3.80;;;38.90;41.50;37.30;100596;;;;584413;242;23082;-86
2022/06/06 06:11:33;;;;;;;6.93;4.53;;;38.30;42.00;37.00;100586;;;;583946;242;23079;-85
2022/06/06 06:14:41;;;;;;;6.40;5.00;;;38.00;43.40;37.30;100582;;;;584475;242;23132;-86
2022/06/06 06:17:09;;;;;;;16.15;4.78;;;38.00;42.70;37.90;100588;;;;584759;242;23179;-85
2022/06/06 06:19:55;;;;;;;6.35;4.00;;;38.50;42.60;38.30;100589;;;;584658;242;23062;-86
2022/06/06 06:22:23;;;;;;;8.13;4.50;;;38.80;41.80;37.70;100579;;;;585044;242;23111;-85
2022/06/06 06:24:56;;;;;;;9.73;5.25;;;38.60;42.10;36.30;100569;;;;584548;242;24129;-86
2022/06/06 06:27:22;;;;;;;10.77;4.97;;;37.60;42.00;35.00;100571;;;;593183;241;23135;-86
2022/06/06 06:29:50;;;;;;;5.20;4.70;;;36.40;43.30;34.00;100576;;;;584274;242;23148;-85
2022/06/06 06:32:32;;;;;;;8.02;4.60;;;35.40;44.70;33.60;100567;;;;582873;242;23070;-86
2022/06/06 06:35:12;;;;;;;4.82;4.45;;;34.60;46.00;33.70;100570;;;;584843;240;23128;-85
2022/06/06 06:38:01;;;;;;;5.37;4.07;;;34.40;46.80;34.10;100565;;;;585859;241;23105;-86
2022/06/06 06:40:53;;;;;;;6.65;4.30;;;34.50;46.70;34.00;100564;;;;586475;242;24135;-85
2022/06/06 06:43:33;;;;;;;4.68;4.28;;;34.60;46.40;33.00;100572;;;;585776;242;23121;-83
2022/06/06 06:46:04;;;;;;;12.23;5.78;;;33.30;47.60;32.30;100571;;;;585206;242;23080;-84
2022/06/06 06:48:39;;;;;;;11.18;5.85;;;32.40;48.70;31.00;100568;;;;593768;242;23095;-86
2022/06/06 06:51:16;;;;;;;10.15;4.82;;;32.30;48.60;30.30;100567;;;;584888;242;23066;-84
2022/06/06 06:54:05;;;;;;;7.72;4.72;;;31.50;50.30;30.40;100565;;;;561592;252;23164;-85
2022/06/06 06:56:57;;;;;;;5.85;5.20;;;31.20;51.40;31.10;100566;;;;584390;242;23130;-85
2022/06/06 06:59:50;;;;;;;6.87;4.85;;;31.90;50.90;31.60;100559;;;;580310;239;23110;-84
2022/06/06 07:08:35;;;;;;;6.47;5.10;;;32.50;50.20;32.70;100551;;;;587541;239;23131;-80
2022/06/06 07:11:39;;;;;;;10.48;5.40;;;33.00;49.60;33.60;100549;;;;590176;242;23172;-82
2022/06/06 07:14:25;;;;;;;10.60;5.43;;;33.90;48.90;35.40;100548;;;;582555;242;24186;-83
2022/06/06 07:16:56;;;;;;;17.20;5.60;;;35.40;47.80;36.00;100540;;;;591130;242;23099;-83
2022/06/06 07:19:23;;;;;;;14.00;6.35;;;36.40;45.90;36.30;100532;;;;583952;242;23163;-82
2022/06/06 07:21:51;;;;;;;11.07;5.90;;;36.90;44.90;36.50;100545;;;;582138;242;23091;-82
2022/06/06 07:24:19;;;;;;;11.15;5.55;;;37.20;44.70;36.80;100539;;;;582485;242;23092;-85
2022/06/06 07:26:51;;;;;;;16.27;6.18;;;37.50;44.70;36.70;100535;;;;582609;242;23103;-83
2022/06/06 07:29:17;;;;;;;13.60;5.60;;;38.30;44.50;37.90;100536;;;;582680;242;24115;-84
2022/06/06 07:32:12;;;;;;;21.17;6.40;;;38.20;44.20;39.10;100539;;;;582575;242;23082;-85
2022/06/06 07:35:19;;;;;;;14.82;6.32;;;39.30;43.30;40.00;100549;;;;583381;242;23152;-84
2022/06/06 07:38:20;;;;;;;6.93;5.35;;;40.50;42.00;41.00;100539;;;;584434;242;23081;-84
2022/06/06 07:40:54;;;;;;;11.27;5.70;;;41.50;41.00;42.20;100546;;;;584212;242;23053;-84
2022/06/06 07:44:05;;;;;;;5.07;4.78;;;42.50;39.90;42.50;100544;;;;583161;242;23110;-85
2022/06/06 07:47:11;;;;;;;5.95;5.00;;;42.90;39.80;43.60;100547;;;;583667;242;23073;-85
2022/06/06 07:49:50;;;;;;;9.10;5.03;;;43.90;38.30;44.20;100539;;;;584930;242;23126;-86
2022/06/06 07:52:26;;;;;;;6.53;5.45;;;44.70;37.20;44.50;100543;;;;585225;242;23117;-84
2022/06/06 07:55:00;;;;;;;6.12;5.62;;;45.30;36.30;45.00;100545;;;;585332;242;23086;-86
2022/06/06 07:57:43;;;;;;;5.78;4.68;;;46.30;36.00;45.90;100551;;;;584271;242;23104;-86
2022/06/06 08:00:17;;;;;;;8.88;5.90;;;46.30;35.90;46.20;100547;;;;586732;242;24157;-85
2022/06/06 08:02:53;;;;;;;14.15;5.82;;;46.90;34.90;46.50;100548;;;;583840;242;23058;-86
2022/06/06 08:05:33;;;;;;;7.22;5.62;;;47.20;35.30;47.10;100547;;;;583953;242;23149;-86
2022/06/06 08:08:38;;;;;;;7.78;4.93;;;47.60;34.80;46.70;100544;;;;582985;242;23062;-85
2022/06/06 08:11:08;;;;;;;5.55;4.35;;;47.90;33.40;47.20;100540;;;;583100;242;24129;-85
2022/06/06 08:13:51;;;;;;;10.07;5.18;;;48.00;33.40;47.20;100547;;;;582813;242;23111;-82
2022/06/06 08:16:28;;;;;;;11.27;5.25;;;48.10;33.50;46.80;100546;;;;576961;242;23118;-83
2022/06/06 08:19:44;;;;;;;5.40;4.97;;;47.90;33.40;47.10;100543;;;;586155;242;23099;-84
2022/06/06 08:22:15;;;;;;;7.95;5.70;;;47.80;34.20;46.30;100546;;;;583544;242;23096;-82
2022/06/06 08:24:48;;;;;;;5.55;5.12;;;47.60;33.70;45.40;100549;;;;583167;242;23112;-85
2022/06/06 08:27:16;;;;;;;5.68;4.80;;;46.90;34.20;46.10;100548;;;;582565;242;23109;-84
2022/06/06 08:29:44;;;;;;;6.55;5.10;;;46.90;34.90;47.30;100542;;;;582602;242;23066;-86
2022/06/06 08:32:14;;;;;;;6.25;5.65;;;47.80;34.30;47.70;100545;;;;577926;242;35163;-85
2022/06/06 08:34:41;;;;;;;9.20;4.20;;;48.70;33.40;48.10;100541;;;;582849;242;23171;-84
2022/06/06 08:37:36;;;;;;;5.50;5.00;;;48.90;33.60;48.50;100535;;;;587348;242;35128;-84
2022/06/06 08:40:29;;;;;;;5.65;4.82;;;49.60;33.30;49.00;100538;;;;578295;242;35096;-86
2022/06/06 08:43:03;;;;;;;6.60;4.70;;;50.10;32.30;49.30;100540;;;;582493;242;24150;-85
2022/06/06 08:45:52;;;;;;;8.25;5.05;;;50.30;32.10;49.80;100533;;;;582202;242;23153;-83
2022/06/06 08:48:39;;;;;;;4.43;4.07;;;51.10;31.20;50.00;100540;;;;583339;242;23098;-85
2022/06/06 08:51:23;;;;;;;4.70;4.30;;;51.10;31.20;50.30;100533;;;;582712;242;23088;-84
2022/06/06 08:54:27;;;;;;;5.10;4.70;;;51.40;30.90;50.30;100535;;;;582025;242;23091;-85
2022/06/06 08:57:19;;;;;;;4.60;4.20;;;51.80;30.60;50.90;100540;;;;582878;242;23076;-86
2022/06/06 09:00:16;;;;;;;10.23;4.90;;;51.70;30.00;50.10;100537;;;;583037;240;23104;-85
2022/06/06 09:03:16;;;;;;;5.32;4.82;;;51.60;30.00;49.20;100538;;;;583977;242;23103;-84
2022/06/06 09:06:11;;;;;;;5.22;4.93;;;51.10;30.20;48.00;100534;;;;584241;242;23060;-83
2022/06/06 09:09:13;;;;;;;7.45;4.80;;;49.00;31.30;46.70;100534;;;;592937;242;23127;-84
2022/06/06 09:12:21;;;;;;;6.40;5.35;;;48.90;31.30;44.70;100530;;;;592761;242;23143;-85
2022/06/06 09:15:16;;;;;;;5.03;4.57;;;47.30;32.60;44.00;100530;;;;592142;242;23150;-83
2022/06/06 09:18:09;;;;;;;5.22;4.68;;;45.80;33.90;44.50;100523;;;;593991;241;23064;-84
2022/06/06 09:20:52;;;;;;;9.52;5.57;;;45.60;34.10;43.90;100519;;;;582854;242;24117;-84
2022/06/06 09:24:12;;;;;;;5.30;4.80;;;45.60;34.10;42.30;100527;;;;584934;242;23080;-86
2022/06/06 09:26:55;;;;;;;8.00;4.93;;;44.30;34.80;40.30;100514;;;;583525;242;23089;-82
2022/06/06 09:29:41;;;;;;;5.20;4.75;;;42.30;36.40;38.40;100507;;;;583641;242;23062;-83
2022/06/06 09:32:45;;;;;;;5.37;4.82;;;40.40;38.10;37.20;100502;;;;586318;242;23163;-85
2022/06/06 09:35:31;;;;;;;8.93;5.10;;;38.80;39.80;36.10;100500;;;;583126;242;23112;-84
2022/06/06 09:38:05;;;;;;;9.23;5.22;;;37.50;40.80;34.80;100500;;;;586275;242;23094;-83
2022/06/06 09:40:44;;;;;;;7.85;4.93;;;36.20;42.50;35.30;100499;;;;583246;242;24126;-84
2022/06/06 09:43:34;;;;;;;8.15;4.20;;;36.10;42.70;36.20;100491;;;;582186;242;24162;-86
2022/06/06 09:46:26;;;;;;;7.78;5.18;;;36.80;42.10;37.00;100491;;;;582119;242;23093;-86
2022/06/06 09:49:15;;;;;;;5.68;4.78;;;37.80;40.90;37.40;100494;;;;583395;242;23079;-84
2022/06/06 09:52:17;;;;;;;10.40;3.83;;;38.90;39.30;38.20;100495;;;;582563;242;23053;-84
2022/06/06 10:01:26;;;;;;;3.47;3.28;;;41.80;36.30;41.20;100486;;;;593230;242;23054;-85
2022/06/06 10:04:28;;;;;;;5.18;4.28;;;42.50;35.40;41.00;100481;;;;583584;242;23075;-84
2022/06/06 10:07:06;;;;;;;16.70;5.07;;;41.50;34.90;39.30;100475;;;;583552;242;23077;-84
2022/06/06 10:10:04;;;;;;;7.72;4.07;;;41.40;34.80;38.70;100469;;;;583177;242;23127;-85
2022/06/06 10:12:59;;;;;;;16.98;4.68;;;40.40;35.80;38.10;100477;;;;584066;242;23090;-85
2022/06/06 10:15:30;;;;;;;12.23;4.47;;;39.70;36.70;37.60;100475;;;;592843;242;23110;-85
2022/06/06 10:18:10;;;;;;;9.65;3.62;;;39.00;37.70;37.10;100478;;;;584262;242;23073;-84
2022/06/06 10:21:08;;;;;;;5.00;3.92;;;38.40;37.80;36.90;100475;;;;584956;242;23128;-84
2022/06/06 10:23:57;;;;;;;6.90;3.97;;;38.10;38.40;37.10;100470;;;;584413;242;23233;-84
2022/06/06 10:26:31;;;;;;;4.10;3.67;;;38.00;39.60;38.00;100466;;;;584829;242;23077;-84
2022/06/06 10:29:19;;;;;;;4.62;4.20;;;38.60;39.60;39.00;100469;;;;592782;242;23087;-84
2022/06/06 10:31:53;;;;;;;8.45;4.50;;;39.60;37.90;38.80;100467;;;;584994;242;23073;-87
2022/06/06 10:35:00;;;;;;;26.95;5.80;;;39.90;36.70;37.30;100461;;;;583817;242;23097;-86
2022/06/06 10:37:53;;;;;;;7.80;4.10;;;37.50;38.50;35.90;100471;;;;584412;242;23053;-84
2022/06/06 10:41:07;;;;;;;15.50;5.43;;;37.40;38.50;35.00;100458;;;;583310;242;23153;-84
2022/06/06 10:44:06;;;;;;;7.78;4.10;;;36.20;40.10;34.10;100463;;;;583570;242;23061;-82
2022/06/06 10:46:34;;;;;;;6.40;3.20;;;34.90;41.60;33.30;100460;;;;583509;242;23067;-84
2022/06/06 10:49:28;;;;;;;4.32;3.05;;;33.90;42.50;32.50;100458;;;;582912;242;23109;-84
2022/06/06 10:52:18;;;;;;;13.77;3.55;;;33.10;40.20;31.70;100454;;;;583451;242;23184;-83
2022/06/06 10:54:54;;;;;;;14.80;4.22;;;32.20;41.10;30.30;100443;;;;591926;242;23066;-83
2022/06/06 10:57:53;;;;;;;8.93;3.85;;;31.20;43.50;29.30;100433;;;;583207;242;23092;-83
2022/06/06 11:00:54;;;;;;;15.88;4.72;;;30.10;45.80;28.60;100440;;;;583343;242;23133;-82
2022/06/06 11:03:52;;;;;;;9.88;4.00;;;29.30;48.90;28.10;100433;;;;582953;241;23125;-83
2022/06/06 11:06:38;;;;;;;6.47;4.07;;;28.70;49.90;27.90;100430;;;;581623;247;23136;-81
2022/06/06 11:09:18;;;;;;;4.43;4.03;;;28.30;50.90;27.90;100423;;;;579875;244;23090;-82
2022/06/06 11:12:16;;;;;;;4.17;3.73;;;28.20;51.90;28.00;100433;;;;582796;242;23129;-82
2022/06/06 11:14:47;;;;;;;11.00;4.33;;;28.30;50.90;27.90;100426;;;;580801;247;23143;-83
2022/06/06 11:17:37;;;;;;;6.23;3.80;;;28.20;50.60;27.80;100429;;;;582094;242;23092;-81
2022/06/06 11:20:47;;;;;;;5.30;4.00;;;28.20;50.50;27.60;100432;;;;582944;242;23086;-83
2022/06/06 11:23:33;;;;;;;8.50;3.90;;;28.10;50.80;27.50;100436;;;;585139;241;23096;-82
2022/06/06 11:26:31;;;;;;;6.90;3.78;;;28.00;52.00;27.30;100434;;;;584921;242;24096;-80
2022/06/06 11:29:26;;;;;;;5.17;4.13;;;27.80;51.70;27.20;100424;;;;585130;241;23121;-82
2022/06/06 11:32:19;;;;;;;7.13;4.20;;;27.60;53.70;27.20;100424;;;;583740;242;23182;-82
2022/06/06 11:35:05;;;;;;;4.87;4.47;;;27.60;53.70;27.00;100430;;;;582173;242;23097;-82
2022/06/06 11:37:59;;;;;;;5.43;4.30;;;27.50;53.80;26.70;100433;;;;584481;242;23162;-83
2022/06/06 11:41:00;;;;;;;7.80;3.97;;;27.30;54.50;26.60;100434;;;;580421;242;23102;-82
2022/06/06 11:44:05;;;;;;;7.90;4.30;;;27.10;54.20;26.40;100419;;;;584725;242;23085;-84
2022/06/06 11:47:10;;;;;;;5.53;4.13;;;26.90;53.60;26.40;100415;;;;583582;242;23072;-83
2022/06/06 11:49:56;;;;;;;4.40;3.90;;;26.90;53.90;26.40;100430;;;;578059;242;46049;-83
2022/06/06 11:52:55;;;;;;;5.37;3.87;;;26.90;53.10;26.40;100416;;;;573049;247;23113;-83
2022/06/06 11:55:41;;;;;;;4.20;3.90;;;26.90;53.10;26.60;100421;;;;591070;241;24167;-83
2022/06/06 11:58:14;;;;;;;4.17;3.87;;;27.00;53.60;26.80;100416;;;;584702;242;23104;-83
2022/06/06 12:00:51;;;;;;;5.50;3.90;;;27.20;53.90;27.10;100418;;;;578483;243;24104;-83
2022/06/06 12:03:31;;;;;;;6.17;3.70;;;27.50;53.70;27.30;100403;;;;575653;244;23090;-83
2022/06/06 12:06:33;;;;;;;8.40;3.60;;;27.80;52.40;27.30;100407;;;;584437;241;23115;-82
2022/06/06 12:09:25;;;;;;;5.27;4.10;;;27.80;52.40;27.10;100402;;;;583778;242;23094;-83
2022/06/06 12:12:05;;;;;;;4.10;3.73;;;27.70;51.60;27.00;100408;;;;583018;241;23089;-82
2022/06/06 12:14:39;;;;;;;5.80;4.53;;;27.40;52.20;26.90;100411;;;;583233;242;23086;-82
2022/06/06 12:17:29;;;;;;;7.90;3.90;;;27.40;53.00;27.00;100406;;;;583079;242;24066;-82
2022/06/06 12:19:59;;;;;;;9.70;4.93;;;27.40;53.00;27.10;100411;;;;580675;242;23072;-81
2022/06/06 12:22:45;;;;;;;34.00;6.00;;;27.50;53.20;27.10;100415;;;;582239;242;23099;-82
2022/06/06 12:25:43;;;;;;;9.77;4.50;;;27.60;52.20;26.90;100404;;;;586184;242;23089;-84
2022/06/06 12:28:25;;;;;;;4.00;3.60;;;27.40;52.40;26.90;100407;;;;583267;242;23071;-83
2022/06/06 12:31:09;;;;;;;5.57;4.03;;;27.40;52.80;26.80;100403;;;;583927;242;23080;-83
2022/06/06 12:33:58;;;;;;;4.13;3.80;;;27.30;53.30;26.90;100402;;;;583619;242;24063;-84
2022/06/06 12:39:08;;;;;;;6.20;3.77;;;27.30;53.00;27.00;100404;;;;579261;248;23127;-76